To NAV CANADA Home Page Login to a new session Search on AWWS site Feedback and Comments Disclaimer Vers la page française équivalente Tips FAQ What's new on the site To the Forecasts and Observations / NOTAM section To "File a Flight Plan" website Publications and other links Update of the User's profile FIC Telephone Numbers My Weather Data Folder Route Weather Data Regional Weather Data Local Weather Data To the Forecasts and Observations / NOTAM section
Request Generated 04/18/2015 at 20:43:42 UTC . Weather information available at that time is displayed.

METAR/TAF

COMOX/BC    

METAR CYQQ 182000Z 04005KT 20SM BKN250 12/06 A3040 RMK CS3 CONTRAILS HALO SLP294=
METAR CYQQ 181900Z 02008KT 20SM SCT250 12/05 A3041 RMK CI2 SLP299=
METAR CYQQ 181800Z 35009KT 20SM FEW250 11/05 A3042 RMK CI2 CONTRAILS SLP302=

TAF CYQQ 181739Z 1818/1918 35012KT P6SM SKC
BECMG 1818/1820 35008KT
FM190900 31008KT P6SM SCT220
RMK NXT FCST BY 190000Z=
Your time UTC time
Weather data provided by Environment Canada and NAV CANADA